Check out our new PWSWeather beta!
PWSweather.com
Personal Weather Stations
Station Observations
URBANDALE
Westwind Acres And Meredith Hills, Urbandale, IA 50322

Westwind Acres And Meredith HillsUrbandale, IA 50322

Lat: 41.643, Lon: -93.709

Elevation: 928

Station Type:

http://urbandaleweather.com

High Low Average
Temperature 43.9°F6.6°C 32.5°F0.3°C 37.8°F3.2°C
Dew Point 36.1°F2.3°C 29.7°F-1.3°C 31.8°F-0.1°C
Winds 2.9 mph 4.7 kmh Calm Calm 1.0 mph SW1.6 kmh SW
Wind Gusts 12.1 mph19.5 kmh -- 4.0 mph6.4 kmh
Humidity 96% 60% 80%
Pressure 30.00 in1015.9 mb 29.62 in1003.0 mb -
Precipitation 0.17 in4.3 mm - -
Hour Temp Dew Point Humidity Winds Wind Gusts Pressure Precip Precip Rate Daily Precip Total
12:01 AM 32.9°F0.5°C 31.6°F-0.2°C 95% Calm Calm 0.9 mph1.4 kmh 30.00 in1015.9 mb 0.01 in0.3 mm 0.60 in15.2 mm 0.01 in0.3 mm
12:06 AM 32.7°F0.4°C 31.5°F-0.3°C 95% Calm Calm 0.9 mph1.4 kmh 29.99 in1015.6 mb 0.01 in0.3 mm 0.00 in0.0 mm 0.01 in0.3 mm
12:11 AM 32.7°F0.4°C 31.5°F-0.3°C 95% Calm Calm -- 29.99 in1015.6 mb 0.01 in0.3 mm 0.00 in0.0 mm 0.01 in0.3 mm
12:16 AM 32.7°F0.4°C 31.6°F-0.2°C 96% Calm Calm -- 29.99 in1015.6 mb 0.01 in0.3 mm 0.00 in0.0 mm 0.01 in0.3 mm
12:21 AM 32.7°F0.4°C 31.6°F-0.2°C 96% Calm Calm 1.0 mph1.6 kmh 29.99 in1015.6 mb 0.01 in0.3 mm 0.00 in0.0 mm 0.01 in0.3 mm
12:26 AM 32.7°F0.4°C 31.6°F-0.2°C 96% Calm Calm 0.9 mph1.4 kmh 29.99 in1015.6 mb 0.01 in0.3 mm 0.00 in0.0 mm 0.01 in0.3 mm
12:31 AM 32.7°F0.4°C 31.6°F-0.2°C 96% Calm Calm -- 30.00 in1015.9 mb 0.01 in0.3 mm 0.00 in0.0 mm 0.01 in0.3 mm
12:36 AM 32.7°F0.4°C 31.6°F-0.2°C 96% Calm Calm 0.9 mph1.4 kmh 29.99 in1015.6 mb 0.00 in0.0 mm 0.00 in0.0 mm 0.01 in0.3 mm
12:41 AM 32.9°F0.5°C 31.8°F-0.1°C 96% Calm Calm 0.9 mph1.4 kmh 29.99 in1015.6 mb 0.00 in0.0 mm 0.00 in0.0 mm 0.01 in0.3 mm
12:46 AM 32.9°F0.5°C 31.8°F-0.1°C 96% Calm Calm 0.9 mph1.4 kmh 29.99 in1015.6 mb 0.00 in0.0 mm 0.00 in0.0 mm 0.01 in0.3 mm
12:51 AM 32.9°F0.5°C 31.8°F-0.1°C 96% Calm Calm 0.9 mph1.4 kmh 29.98 in1015.2 mb 0.00 in0.0 mm 0.00 in0.0 mm 0.01 in0.3 mm
12:56 AM 32.9°F0.5°C 31.8°F-0.1°C 96% Calm Calm 0.9 mph1.4 kmh 29.98 in1015.2 mb 0.00 in0.0 mm 0.00 in0.0 mm 0.01 in0.3 mm
01:01 AM 32.9°F0.5°C 31.8°F-0.1°C 96% Calm Calm 0.9 mph1.4 kmh 29.98 in1015.2 mb 0.00 in0.0 mm 0.00 in0.0 mm 0.01 in0.3 mm
01:07 AM 32.9°F0.5°C 31.8°F-0.1°C 96% Calm Calm 0.9 mph1.4 kmh 29.99 in1015.6 mb 0.00 in0.0 mm 0.00 in0.0 mm 0.01 in0.3 mm
01:12 AM 32.9°F0.5°C 31.8°F-0.1°C 96% Calm Calm 0.9 mph1.4 kmh 29.99 in1015.6 mb 0.00 in0.0 mm 0.00 in0.0 mm 0.01 in0.3 mm
01:17 AM 32.9°F0.5°C 31.8°F-0.1°C 96% Calm Calm 0.9 mph1.4 kmh 29.98 in1015.2 mb 0.00 in0.0 mm 0.00 in0.0 mm 0.01 in0.3 mm
01:22 AM 33.1°F0.6°C 32.0°F0.0°C 96% Calm Calm 2.9 mph4.7 kmh 29.98 in1015.2 mb 0.00 in0.0 mm 0.00 in0.0 mm 0.01 in0.3 mm
01:27 AM 33.1°F0.6°C 32.0°F0.0°C 96% Calm Calm 2.9 mph4.7 kmh 29.99 in1015.6 mb 0.00 in0.0 mm 0.00 in0.0 mm 0.01 in0.3 mm
01:32 AM 33.1°F0.6°C 32.0°F0.0°C 96% Calm Calm 2.9 mph4.7 kmh 29.99 in1015.6 mb 0.00 in0.0 mm 0.00 in0.0 mm 0.01 in0.3 mm
01:37 AM 33.1°F0.6°C 32.0°F0.0°C 96% Calm Calm 0.9 mph1.4 kmh 29.99 in1015.6 mb 0.00 in0.0 mm 0.00 in0.0 mm 0.01 in0.3 mm
01:42 AM 33.1°F0.6°C 32.0°F0.0°C 96% 0.9 mph WSW1.4 kmh WSW 4.0 mph6.4 kmh 29.99 in1015.6 mb 0.00 in0.0 mm 0.00 in0.0 mm 0.01 in0.3 mm
01:47 AM 33.1°F0.6°C 32.0°F0.0°C 96% 0.9 mph NW1.4 kmh NW 4.0 mph6.4 kmh 29.99 in1015.6 mb 0.00 in0.0 mm 0.00 in0.0 mm 0.01 in0.3 mm
01:52 AM 33.1°F0.6°C 32.0°F0.0°C 96% 0.9 mph WNW1.4 kmh WNW 6.9 mph11.1 kmh 29.99 in1015.6 mb 0.00 in0.0 mm 0.00 in0.0 mm 0.01 in0.3 mm
01:57 AM 33.1°F0.6°C 32.0°F0.0°C 96% 0.9 mph NW1.4 kmh NW 4.0 mph6.4 kmh 29.99 in1015.6 mb 0.00 in0.0 mm 0.00 in0.0 mm 0.01 in0.3 mm
02:02 AM 32.9°F0.5°C 31.8°F-0.1°C 96% 0.9 mph WSW1.4 kmh WSW 6.0 mph9.7 kmh 29.98 in1015.2 mb 0.00 in0.0 mm 0.00 in0.0 mm 0.01 in0.3 mm
02:07 AM 32.9°F0.5°C 31.8°F-0.1°C 96% 0.9 mph NW1.4 kmh NW 2.0 mph3.2 kmh 29.98 in1015.2 mb 0.00 in0.0 mm 0.00 in0.0 mm 0.01 in0.3 mm
02:12 AM 32.9°F0.5°C 31.8°F-0.1°C 96% 0.9 mph W1.4 kmh W 4.0 mph6.4 kmh 29.98 in1015.2 mb 0.00 in0.0 mm 0.00 in0.0 mm 0.01 in0.3 mm
02:17 AM 32.7°F0.4°C 31.6°F-0.2°C 96% 0.9 mph WSW1.4 kmh WSW 4.0 mph6.4 kmh 29.98 in1015.2 mb 0.00 in0.0 mm 0.00 in0.0 mm 0.01 in0.3 mm
02:22 AM 32.7°F0.4°C 31.6°F-0.2°C 96% 0.9 mph W1.4 kmh W 4.0 mph6.4 kmh 29.98 in1015.2 mb 0.01 in0.3 mm 0.12 in3.0 mm 0.01 in0.3 mm
02:27 AM 32.7°F0.4°C 31.6°F-0.2°C 96% 0.9 mph NW1.4 kmh NW 4.0 mph6.4 kmh 29.99 in1015.6 mb 0.01 in0.3 mm 0.00 in0.0 mm 0.01 in0.3 mm
02:32 AM 32.5°F0.3°C 31.5°F-0.3°C 96% 0.9 mph WNW1.4 kmh WNW 5.0 mph8.0 kmh 29.98 in1015.2 mb 0.01 in0.3 mm 0.00 in0.0 mm 0.01 in0.3 mm
02:37 AM 32.5°F0.3°C 31.5°F-0.3°C 96% 0.9 mph NW1.4 kmh NW 2.0 mph3.2 kmh 29.98 in1015.2 mb 0.01 in0.3 mm 0.00 in0.0 mm 0.01 in0.3 mm
02:42 AM 32.5°F0.3°C 31.5°F-0.3°C 96% Calm Calm 4.0 mph6.4 kmh 29.98 in1015.2 mb 0.01 in0.3 mm 0.00 in0.0 mm 0.01 in0.3 mm
02:47 AM 32.5°F0.3°C 31.5°F-0.3°C 96% Calm Calm 2.0 mph3.2 kmh 29.97 in1014.9 mb 0.01 in0.3 mm 0.00 in0.0 mm 0.01 in0.3 mm
02:52 AM 32.5°F0.3°C 31.5°F-0.3°C 96% Calm Calm 2.0 mph3.2 kmh 29.98 in1015.2 mb 0.01 in0.3 mm 0.00 in0.0 mm 0.01 in0.3 mm
02:57 AM 32.5°F0.3°C 31.5°F-0.3°C 96% Calm Calm 2.0 mph3.2 kmh 29.98 in1015.2 mb 0.01 in0.3 mm 0.00 in0.0 mm 0.01 in0.3 mm
03:02 AM 32.5°F0.3°C 31.5°F-0.3°C 96% Calm Calm 0.9 mph1.4 kmh 29.98 in1015.2 mb 0.01 in0.3 mm 0.00 in0.0 mm 0.01 in0.3 mm
03:07 AM 32.5°F0.3°C 31.5°F-0.3°C 96% 0.9 mph W1.4 kmh W 5.0 mph8.0 kmh 29.97 in1014.9 mb 0.01 in0.3 mm 0.00 in0.0 mm 0.01 in0.3 mm
03:12 AM 32.5°F0.3°C 31.5°F-0.3°C 96% 2.0 mph W3.2 kmh W 4.0 mph6.4 kmh 29.97 in1014.9 mb 0.01 in0.3 mm 0.00 in0.0 mm 0.01 in0.3 mm
03:17 AM 32.7°F0.4°C 31.6°F-0.2°C 96% 0.9 mph W1.4 kmh W 2.0 mph3.2 kmh 29.97 in1014.9 mb 0.01 in0.3 mm 0.00 in0.0 mm 0.01 in0.3 mm
03:22 AM 32.7°F0.4°C 31.6°F-0.2°C 96% Calm Calm 4.0 mph6.4 kmh 29.97 in1014.9 mb 0.00 in0.0 mm 0.00 in0.0 mm 0.01 in0.3 mm
03:27 AM 32.7°F0.4°C 31.5°F-0.3°C 95% Calm Calm 2.9 mph4.7 kmh 29.98 in1015.2 mb 0.00 in0.0 mm 0.00 in0.0 mm 0.01 in0.3 mm
03:32 AM 32.7°F0.4°C 31.5°F-0.3°C 95% 0.9 mph WSW1.4 kmh WSW 4.0 mph6.4 kmh 29.97 in1014.9 mb 0.00 in0.0 mm 0.00 in0.0 mm 0.01 in0.3 mm
03:37 AM 32.9°F0.5°C 31.6°F-0.2°C 95% 0.9 mph SW1.4 kmh SW 2.9 mph4.7 kmh 29.97 in1014.9 mb 0.00 in0.0 mm 0.00 in0.0 mm 0.01 in0.3 mm
03:42 AM 32.9°F0.5°C 31.3°F-0.4°C 94% Calm Calm 2.0 mph3.2 kmh 29.97 in1014.9 mb 0.00 in0.0 mm 0.00 in0.0 mm 0.01 in0.3 mm
03:47 AM 33.1°F0.6°C 31.5°F-0.3°C 94% 0.9 mph NW1.4 kmh NW 3.0 mph4.8 kmh 29.98 in1015.2 mb 0.00 in0.0 mm 0.00 in0.0 mm 0.01 in0.3 mm
03:52 AM 33.1°F0.6°C 31.5°F-0.3°C 94% Calm Calm 0.9 mph1.4 kmh 29.97 in1014.9 mb 0.00 in0.0 mm 0.00 in0.0 mm 0.01 in0.3 mm
03:57 AM 33.1°F0.6°C 31.5°F-0.3°C 94% Calm Calm 2.9 mph4.7 kmh 29.97 in1014.9 mb 0.00 in0.0 mm 0.00 in0.0 mm 0.01 in0.3 mm
04:02 AM 33.1°F0.6°C 31.5°F-0.3°C 94% Calm Calm 0.9 mph1.4 kmh 29.97 in1014.9 mb 0.00 in0.0 mm 0.00 in0.0 mm 0.01 in0.3 mm
04:07 AM 33.1°F0.6°C 31.5°F-0.3°C 94% Calm Calm 2.0 mph3.2 kmh 29.97 in1014.9 mb 0.00 in0.0 mm 0.00 in0.0 mm 0.01 in0.3 mm
04:12 AM 33.1°F0.6°C 31.3°F-0.4°C 93% Calm Calm 2.0 mph3.2 kmh 29.97 in1014.9 mb 0.00 in0.0 mm 0.00 in0.0 mm 0.01 in0.3 mm
04:17 AM 33.1°F0.6°C 31.3°F-0.4°C 93% Calm Calm 0.9 mph1.4 kmh 29.97 in1014.9 mb 0.00 in0.0 mm 0.00 in0.0 mm 0.01 in0.3 mm
04:22 AM 33.1°F0.6°C 31.3°F-0.4°C 93% Calm Calm 2.0 mph3.2 kmh 29.97 in1014.9 mb 0.00 in0.0 mm 0.00 in0.0 mm 0.01 in0.3 mm
04:27 AM 33.1°F0.6°C 31.3°F-0.4°C 93% Calm Calm 0.9 mph1.4 kmh 29.97 in1014.9 mb 0.00 in0.0 mm 0.00 in0.0 mm 0.01 in0.3 mm
04:32 AM 33.1°F0.6°C 31.3°F-0.4°C 93% Calm Calm 3.0 mph4.8 kmh 29.97 in1014.9 mb 0.00 in0.0 mm 0.00 in0.0 mm 0.01 in0.3 mm
04:37 AM 33.3°F0.7°C 31.5°F-0.3°C 93% Calm Calm 2.9 mph4.7 kmh 29.97 in1014.9 mb 0.00 in0.0 mm 0.00 in0.0 mm 0.01 in0.3 mm
04:43 AM 33.3°F0.7°C 31.5°F-0.3°C 93% Calm Calm 2.9 mph4.7 kmh 29.97 in1014.9 mb 0.00 in0.0 mm 0.00 in0.0 mm 0.01 in0.3 mm
04:48 AM 33.3°F0.7°C 31.5°F-0.3°C 93% Calm Calm 0.9 mph1.4 kmh 29.97 in1014.9 mb 0.00 in0.0 mm 0.00 in0.0 mm 0.01 in0.3 mm
04:53 AM 33.3°F0.7°C 31.5°F-0.3°C 93% Calm Calm 5.0 mph8.0 kmh 29.96 in1014.6 mb 0.00 in0.0 mm 0.00 in0.0 mm 0.01 in0.3 mm
04:58 AM 33.3°F0.7°C 31.5°F-0.3°C 93% Calm Calm 0.9 mph1.4 kmh 29.96 in1014.6 mb 0.00 in0.0 mm 0.00 in0.0 mm 0.01 in0.3 mm
05:03 AM 33.1°F0.6°C 31.3°F-0.4°C 93% Calm Calm 2.0 mph3.2 kmh 29.96 in1014.6 mb 0.00 in0.0 mm 0.00 in0.0 mm 0.01 in0.3 mm
05:08 AM 33.1°F0.6°C 31.3°F-0.4°C 93% Calm Calm 2.0 mph3.2 kmh 29.96 in1014.6 mb 0.00 in0.0 mm 0.00 in0.0 mm 0.01 in0.3 mm
05:13 AM 33.1°F0.6°C 31.3°F-0.4°C 93% Calm Calm 2.0 mph3.2 kmh 29.96 in1014.6 mb 0.00 in0.0 mm 0.00 in0.0 mm 0.01 in0.3 mm
05:18 AM 33.1°F0.6°C 31.5°F-0.3°C 94% Calm Calm 2.0 mph3.2 kmh 29.96 in1014.6 mb 0.00 in0.0 mm 0.00 in0.0 mm 0.01 in0.3 mm
05:23 AM 33.1°F0.6°C 31.3°F-0.4°C 93% Calm Calm 0.9 mph1.4 kmh 29.96 in1014.6 mb 0.00 in0.0 mm 0.00 in0.0 mm 0.01 in0.3 mm
05:28 AM 33.1°F0.6°C 31.3°F-0.4°C 93% Calm Calm 2.0 mph3.2 kmh 29.96 in1014.6 mb 0.00 in0.0 mm 0.00 in0.0 mm 0.01 in0.3 mm
05:33 AM 33.1°F0.6°C 31.3°F-0.4°C 93% Calm Calm 0.9 mph1.4 kmh 29.96 in1014.6 mb 0.00 in0.0 mm 0.00 in0.0 mm 0.01 in0.3 mm
05:38 AM 33.1°F0.6°C 31.3°F-0.4°C 93% Calm Calm 0.9 mph1.4 kmh 29.96 in1014.6 mb 0.00 in0.0 mm 0.00 in0.0 mm 0.01 in0.3 mm
05:43 AM 33.1°F0.6°C 31.3°F-0.4°C 93% Calm Calm 2.0 mph3.2 kmh 29.96 in1014.6 mb 0.00 in0.0 mm 0.00 in0.0 mm 0.01 in0.3 mm
05:48 AM 33.1°F0.6°C 31.3°F-0.4°C 93% Calm Calm 2.0 mph3.2 kmh 29.96 in1014.6 mb 0.00 in0.0 mm 0.00 in0.0 mm 0.01 in0.3 mm
05:53 AM 33.1°F0.6°C 31.3°F-0.4°C 93% Calm Calm 2.0 mph3.2 kmh 29.95 in1014.2 mb 0.00 in0.0 mm 0.00 in0.0 mm 0.01 in0.3 mm
05:58 AM 33.1°F0.6°C 31.3°F-0.4°C 93% 0.9 mph SW1.4 kmh SW 4.0 mph6.4 kmh 29.95 in1014.2 mb 0.00 in0.0 mm 0.00 in0.0 mm 0.01 in0.3 mm
06:03 AM 33.1°F0.6°C 31.3°F-0.4°C 93% 0.9 mph WSW1.4 kmh WSW 2.0 mph3.2 kmh 29.95 in1014.2 mb 0.00 in0.0 mm 0.00 in0.0 mm 0.01 in0.3 mm
06:08 AM 33.1°F0.6°C 31.3°F-0.4°C 93% Calm Calm 4.0 mph6.4 kmh 29.95 in1014.2 mb 0.00 in0.0 mm 0.00 in0.0 mm 0.01 in0.3 mm
06:13 AM 33.1°F0.6°C 31.3°F-0.4°C 93% 0.9 mph W1.4 kmh W 4.0 mph6.4 kmh 29.95 in1014.2 mb 0.00 in0.0 mm 0.00 in0.0 mm 0.01 in0.3 mm
06:18 AM 33.3°F0.7°C 31.1°F-0.5°C 92% 0.9 mph SSW1.4 kmh SSW 4.0 mph6.4 kmh 29.95 in1014.2 mb 0.00 in0.0 mm 0.00 in0.0 mm 0.01 in0.3 mm
06:23 AM 33.1°F0.6°C 31.1°F-0.5°C 92% 0.9 mph W1.4 kmh W 2.0 mph3.2 kmh 29.95 in1014.2 mb 0.00 in0.0 mm 0.00 in0.0 mm 0.01 in0.3 mm
06:28 AM 33.3°F0.7°C 30.9°F-0.6°C 91% 0.9 mph WSW1.4 kmh WSW 6.0 mph9.7 kmh 29.95 in1014.2 mb 0.00 in0.0 mm 0.00 in0.0 mm 0.01 in0.3 mm
06:33 AM 33.3°F0.7°C 30.9°F-0.6°C 91% 2.0 mph SW3.2 kmh SW 4.0 mph6.4 kmh 29.95 in1014.2 mb 0.00 in0.0 mm 0.00 in0.0 mm 0.01 in0.3 mm
06:38 AM 33.3°F0.7°C 30.6°F-0.8°C 90% 2.0 mph WSW3.2 kmh WSW 12.1 mph19.5 kmh 29.95 in1014.2 mb 0.00 in0.0 mm 0.00 in0.0 mm 0.01 in0.3 mm
06:43 AM 33.3°F0.7°C 30.6°F-0.8°C 90% 2.0 mph WSW3.2 kmh WSW 6.9 mph11.1 kmh 29.95 in1014.2 mb 0.00 in0.0 mm 0.00 in0.0 mm 0.01 in0.3 mm
06:48 AM 33.3°F0.7°C 30.6°F-0.8°C 90% 2.0 mph NW3.2 kmh NW 6.0 mph9.7 kmh 29.95 in1014.2 mb 0.00 in0.0 mm 0.00 in0.0 mm 0.01 in0.3 mm
06:53 AM 33.3°F0.7°C 30.6°F-0.8°C 90% 0.9 mph S1.4 kmh S 4.9 mph7.9 kmh 29.95 in1014.2 mb 0.00 in0.0 mm 0.00 in0.0 mm 0.01 in0.3 mm
06:58 AM 33.3°F0.7°C 30.6°F-0.8°C 90% 0.9 mph NW1.4 kmh NW 4.0 mph6.4 kmh 29.94 in1013.9 mb 0.00 in0.0 mm 0.00 in0.0 mm 0.01 in0.3 mm
07:03 AM 33.1°F0.6°C 30.2°F-1.0°C 89% 0.9 mph W1.4 kmh W 4.9 mph7.9 kmh 29.94 in1013.9 mb 0.00 in0.0 mm 0.00 in0.0 mm 0.01 in0.3 mm
07:08 AM 33.1°F0.6°C 30.2°F-1.0°C 89% 2.0 mph WSW3.2 kmh WSW 4.0 mph6.4 kmh 29.94 in1013.9 mb 0.00 in0.0 mm 0.00 in0.0 mm 0.01 in0.3 mm
07:13 AM 33.1°F0.6°C 30.4°F-0.9°C 90% 0.9 mph SW1.4 kmh SW 8.0 mph12.9 kmh 29.94 in1013.9 mb 0.00 in0.0 mm 0.00 in0.0 mm 0.01 in0.3 mm
07:18 AM 33.1°F0.6°C 30.4°F-0.9°C 90% 2.0 mph WSW3.2 kmh WSW 6.9 mph11.1 kmh 29.94 in1013.9 mb 0.00 in0.0 mm 0.00 in0.0 mm 0.01 in0.3 mm
07:23 AM 32.9°F0.5°C 30.4°F-0.9°C 90% 2.0 mph W3.2 kmh W 6.9 mph11.1 kmh 29.94 in1013.9 mb 0.00 in0.0 mm 0.00 in0.0 mm 0.01 in0.3 mm
07:28 AM 32.7°F0.4°C 29.8°F-1.2°C 89% 2.0 mph WNW3.2 kmh WNW 6.0 mph9.7 kmh 29.94 in1013.9 mb 0.00 in0.0 mm 0.00 in0.0 mm 0.01 in0.3 mm
07:33 AM 32.7°F0.4°C 29.8°F-1.2°C 89% 0.9 mph SW1.4 kmh SW 6.0 mph9.7 kmh 29.94 in1013.9 mb 0.00 in0.0 mm 0.00 in0.0 mm 0.01 in0.3 mm
07:38 AM 32.7°F0.4°C 29.8°F-1.2°C 89% 0.9 mph W1.4 kmh W 6.0 mph9.7 kmh 29.94 in1013.9 mb 0.00 in0.0 mm 0.00 in0.0 mm 0.01 in0.3 mm
07:43 AM 32.7°F0.4°C 29.8°F-1.2°C 89% 2.0 mph SW3.2 kmh SW 4.9 mph7.9 kmh 29.94 in1013.9 mb 0.00 in0.0 mm 0.00 in0.0 mm 0.01 in0.3 mm
07:48 AM 32.7°F0.4°C 29.8°F-1.2°C 89% 2.0 mph WNW3.2 kmh WNW 2.9 mph4.7 kmh 29.94 in1013.9 mb 0.00 in0.0 mm 0.00 in0.0 mm 0.01 in0.3 mm
07:53 AM 32.5°F0.3°C 29.7°F-1.3°C 89% 0.9 mph W1.4 kmh W 2.9 mph4.7 kmh 29.94 in1013.9 mb 0.00 in0.0 mm 0.00 in0.0 mm 0.01 in0.3 mm
07:58 AM 32.5°F0.3°C 30.0°F-1.1°C 90% Calm Calm 2.0 mph3.2 kmh 29.94 in1013.9 mb 0.00 in0.0 mm 0.00 in0.0 mm 0.01 in0.3 mm
08:03 AM 32.5°F0.3°C 30.0°F-1.1°C 90% Calm Calm 2.9 mph4.7 kmh 29.94 in1013.9 mb 0.00 in0.0 mm 0.00 in0.0 mm 0.01 in0.3 mm
08:08 AM 32.5°F0.3°C 30.0°F-1.1°C 90% 0.9 mph SW1.4 kmh SW 4.0 mph6.4 kmh 29.94 in1013.9 mb 0.00 in0.0 mm 0.00 in0.0 mm 0.01 in0.3 mm
08:13 AM 32.5°F0.3°C 29.7°F-1.3°C 89% 0.9 mph SW1.4 kmh SW 4.0 mph6.4 kmh 29.94 in1013.9 mb 0.00 in0.0 mm 0.00 in0.0 mm 0.01 in0.3 mm
08:18 AM 32.5°F0.3°C 29.7°F-1.3°C 89% 0.9 mph S1.4 kmh S 2.9 mph4.7 kmh 29.94 in1013.9 mb 0.00 in0.0 mm 0.00 in0.0 mm 0.01 in0.3 mm
08:23 AM 32.5°F0.3°C 29.7°F-1.3°C 89% 0.9 mph SW1.4 kmh SW 2.9 mph4.7 kmh 29.94 in1013.9 mb 0.00 in0.0 mm 0.00 in0.0 mm 0.01 in0.3 mm
08:28 AM 32.5°F0.3°C 29.7°F-1.3°C 89% 0.9 mph SW1.4 kmh SW 2.9 mph4.7 kmh 29.94 in1013.9 mb 0.00 in0.0 mm 0.00 in0.0 mm 0.01 in0.3 mm
08:33 AM 32.7°F0.4°C 29.8°F-1.2°C 89% 0.9 mph WSW1.4 kmh WSW 2.9 mph4.7 kmh 29.94 in1013.9 mb 0.00 in0.0 mm 0.00 in0.0 mm 0.01 in0.3 mm
08:38 AM 33.1°F0.6°C 29.8°F-1.2°C 88% 0.9 mph SW1.4 kmh SW 4.0 mph6.4 kmh 29.94 in1013.9 mb 0.00 in0.0 mm 0.00 in0.0 mm 0.01 in0.3 mm
08:43 AM 33.3°F0.7°C 29.8°F-1.2°C 87% 0.9 mph WSW1.4 kmh WSW 4.0 mph6.4 kmh 29.94 in1013.9 mb 0.00 in0.0 mm 0.00 in0.0 mm 0.01 in0.3 mm
08:48 AM 33.4°F0.8°C 30.0°F-1.1°C 87% 0.9 mph W1.4 kmh W 4.0 mph6.4 kmh 29.94 in1013.9 mb 0.00 in0.0 mm 0.00 in0.0 mm 0.01 in0.3 mm
08:53 AM 33.4°F0.8°C 30.0°F-1.1°C 87% 0.9 mph WSW1.4 kmh WSW 4.0 mph6.4 kmh 29.94 in1013.9 mb 0.00 in0.0 mm 0.00 in0.0 mm 0.01 in0.3 mm
08:58 AM 33.4°F0.8°C 30.0°F-1.1°C 87% 0.9 mph SW1.4 kmh SW 4.0 mph6.4 kmh 29.94 in1013.9 mb 0.00 in0.0 mm 0.00 in0.0 mm 0.01 in0.3 mm
09:03 AM 33.4°F0.8°C 30.0°F-1.1°C 87% 2.0 mph SW3.2 kmh SW 6.9 mph11.1 kmh 29.94 in1013.9 mb 0.00 in0.0 mm 0.00 in0.0 mm 0.01 in0.3 mm
09:08 AM 33.6°F0.9°C 30.2°F-1.0°C 87% 2.0 mph SSW3.2 kmh SSW 4.9 mph7.9 kmh 29.94 in1013.9 mb 0.00 in0.0 mm 0.00 in0.0 mm 0.01 in0.3 mm
09:13 AM 34.0°F1.1°C 30.2°F-1.0°C 86% 0.9 mph SW1.4 kmh SW 4.0 mph6.4 kmh 29.94 in1013.9 mb 0.01 in0.3 mm 0.12 in3.0 mm 0.02 in0.5 mm
09:18 AM 34.3°F1.3°C 30.4°F-0.9°C 85% 0.9 mph SW1.4 kmh SW 2.9 mph4.7 kmh 29.94 in1013.9 mb 0.01 in0.3 mm 0.00 in0.0 mm 0.02 in0.5 mm
09:23 AM 34.5°F1.4°C 30.2°F-1.0°C 84% 2.0 mph SW3.2 kmh SW 5.0 mph8.0 kmh 29.94 in1013.9 mb 0.01 in0.3 mm 0.00 in0.0 mm 0.02 in0.5 mm
09:28 AM 34.9°F1.6°C 30.6°F-0.8°C 84% 0.9 mph SW1.4 kmh SW 2.9 mph4.7 kmh 29.94 in1013.9 mb 0.01 in0.3 mm 0.00 in0.0 mm 0.02 in0.5 mm
09:33 AM 35.2°F1.8°C 30.6°F-0.8°C 83% 0.9 mph WSW1.4 kmh WSW 2.9 mph4.7 kmh 29.94 in1013.9 mb 0.01 in0.3 mm 0.00 in0.0 mm 0.02 in0.5 mm
09:38 AM 35.4°F1.9°C 30.6°F-0.8°C 82% 0.9 mph SW1.4 kmh SW 5.0 mph8.0 kmh 29.94 in1013.9 mb 0.01 in0.3 mm 0.00 in0.0 mm 0.02 in0.5 mm
09:43 AM 35.4°F1.9°C 30.6°F-0.8°C 82% 2.0 mph SSW3.2 kmh SSW 4.0 mph6.4 kmh 29.94 in1013.9 mb 0.01 in0.3 mm 0.00 in0.0 mm 0.02 in0.5 mm
09:48 AM 35.4°F1.9°C 30.6°F-0.8°C 82% 0.9 mph SW1.4 kmh SW 4.0 mph6.4 kmh 29.94 in1013.9 mb 0.01 in0.3 mm 0.00 in0.0 mm 0.02 in0.5 mm
09:53 AM 35.8°F2.1°C 30.6°F-0.8°C 81% 2.0 mph SSW3.2 kmh SSW 5.0 mph8.0 kmh 29.94 in1013.9 mb 0.01 in0.3 mm 0.00 in0.0 mm 0.02 in0.5 mm
09:58 AM 35.8°F2.1°C 30.2°F-1.0°C 80% 2.0 mph SSW3.2 kmh SSW 4.9 mph7.9 kmh 29.94 in1013.9 mb 0.01 in0.3 mm 0.00 in0.0 mm 0.02 in0.5 mm
10:03 AM 36.1°F2.3°C 30.9°F-0.6°C 81% 2.0 mph SSE3.2 kmh SSE 4.0 mph6.4 kmh 29.94 in1013.9 mb 0.01 in0.3 mm 0.00 in0.0 mm 0.02 in0.5 mm
10:08 AM 36.3°F2.4°C 30.4°F-0.9°C 79% 2.0 mph SW3.2 kmh SW 5.0 mph8.0 kmh 29.93 in1013.5 mb 0.01 in0.3 mm 0.00 in0.0 mm 0.02 in0.5 mm
10:13 AM 36.7°F2.6°C 31.1°F-0.5°C 80% 2.0 mph S3.2 kmh S 4.9 mph7.9 kmh 29.93 in1013.5 mb 0.00 in0.0 mm 0.00 in0.0 mm 0.02 in0.5 mm
10:18 AM 36.9°F2.7°C 30.6°F-0.8°C 78% 2.0 mph SW3.2 kmh SW 4.0 mph6.4 kmh 29.92 in1013.2 mb 0.00 in0.0 mm 0.00 in0.0 mm 0.02 in0.5 mm
10:23 AM 36.9°F2.7°C 30.6°F-0.8°C 78% 2.0 mph SSW3.2 kmh SSW 4.9 mph7.9 kmh 29.92 in1013.2 mb 0.00 in0.0 mm 0.00 in0.0 mm 0.02 in0.5 mm
10:28 AM 36.9°F2.7°C 30.6°F-0.8°C 78% 2.0 mph SW3.2 kmh SW 4.9 mph7.9 kmh 29.92 in1013.2 mb 0.00 in0.0 mm 0.00 in0.0 mm 0.02 in0.5 mm
10:33 AM 36.9°F2.7°C 30.6°F-0.8°C 78% 2.0 mph SW3.2 kmh SW 4.9 mph7.9 kmh 29.92 in1013.2 mb 0.00 in0.0 mm 0.00 in0.0 mm 0.02 in0.5 mm
10:38 AM 36.9°F2.7°C 30.6°F-0.8°C 78% 2.0 mph SW3.2 kmh SW 4.9 mph7.9 kmh 29.92 in1013.2 mb 0.00 in0.0 mm 0.00 in0.0 mm 0.02 in0.5 mm
10:43 AM 36.9°F2.7°C 30.6°F-0.8°C 78% 2.0 mph SSW3.2 kmh SSW 4.9 mph7.9 kmh 29.92 in1013.2 mb 0.01 in0.3 mm 0.12 in3.0 mm 0.03 in0.8 mm
10:48 AM 37.0°F2.8°C 30.7°F-0.7°C 78% 2.0 mph SW3.2 kmh SW 4.0 mph6.4 kmh 29.93 in1013.5 mb 0.01 in0.3 mm 0.00 in0.0 mm 0.03 in0.8 mm
10:53 AM 37.2°F2.9°C 30.7°F-0.7°C 77% 2.0 mph WSW3.2 kmh WSW 4.0 mph6.4 kmh 29.93 in1013.5 mb 0.01 in0.3 mm 0.00 in0.0 mm 0.03 in0.8 mm
10:58 AM 37.6°F3.1°C 31.1°F-0.5°C 77% 2.0 mph SSW3.2 kmh SSW 4.9 mph7.9 kmh 29.93 in1013.5 mb 0.01 in0.3 mm 0.00 in0.0 mm 0.03 in0.8 mm
11:03 AM 37.8°F3.2°C 30.9°F-0.6°C 76% 2.9 mph SW4.7 kmh SW 4.0 mph6.4 kmh 29.93 in1013.5 mb 0.01 in0.3 mm 0.00 in0.0 mm 0.03 in0.8 mm
11:08 AM 37.9°F3.3°C 30.7°F-0.7°C 75% 2.9 mph S4.7 kmh S 6.0 mph9.7 kmh 29.93 in1013.5 mb 0.02 in0.5 mm 0.12 in3.0 mm 0.03 in0.8 mm
11:13 AM 38.1°F3.4°C 30.9°F-0.6°C 75% 2.9 mph SSE4.7 kmh SSE 6.9 mph11.1 kmh 29.93 in1013.5 mb 0.02 in0.5 mm 0.00 in0.0 mm 0.04 in1.0 mm
11:18 AM 38.3°F3.5°C 31.1°F-0.5°C 75% 2.0 mph SW3.2 kmh SW 4.0 mph6.4 kmh 29.92 in1013.2 mb 0.02 in0.5 mm 0.00 in0.0 mm 0.04 in1.0 mm
11:23 AM 38.7°F3.7°C 31.1°F-0.5°C 74% 2.0 mph SSW3.2 kmh SSW 4.0 mph6.4 kmh 29.92 in1013.2 mb 0.02 in0.5 mm 0.00 in0.0 mm 0.04 in1.0 mm
11:28 AM 38.8°F3.8°C 31.3°F-0.4°C 74% 2.0 mph WSW3.2 kmh WSW 4.0 mph6.4 kmh 29.92 in1013.2 mb 0.02 in0.5 mm 0.00 in0.0 mm 0.04 in1.0 mm
11:33 AM 39.2°F4.0°C 31.6°F-0.2°C 74% 2.0 mph SW3.2 kmh SW 4.0 mph6.4 kmh 29.92 in1013.2 mb 0.02 in0.5 mm 0.00 in0.0 mm 0.04 in1.0 mm
11:38 AM 39.2°F4.0°C 30.9°F-0.6°C 72% 2.0 mph SSW3.2 kmh SSW 7.0 mph11.3 kmh 29.91 in1012.9 mb 0.03 in0.8 mm 0.12 in3.0 mm 0.05 in1.3 mm
11:43 AM 39.6°F4.2°C 31.3°F-0.4°C 72% 2.0 mph SW3.2 kmh SW 4.9 mph7.9 kmh 29.90 in1012.5 mb 0.02 in0.5 mm 0.00 in0.0 mm 0.05 in1.3 mm
11:48 AM 39.7°F4.3°C 31.1°F-0.5°C 71% 2.0 mph SW3.2 kmh SW 4.9 mph7.9 kmh 29.91 in1012.9 mb 0.02 in0.5 mm 0.00 in0.0 mm 0.05 in1.3 mm
11:53 AM 39.9°F4.4°C 31.3°F-0.4°C 71% 2.0 mph SW3.2 kmh SW 4.9 mph7.9 kmh 29.91 in1012.9 mb 0.02 in0.5 mm 0.00 in0.0 mm 0.05 in1.3 mm
11:58 AM 40.3°F4.6°C 31.3°F-0.4°C 70% 2.0 mph S3.2 kmh S 2.9 mph4.7 kmh 29.90 in1012.5 mb 0.03 in0.8 mm 0.12 in3.0 mm 0.06 in1.5 mm
12:03 PM 40.5°F4.7°C 31.5°F-0.3°C 70% 2.0 mph SW3.2 kmh SW 7.0 mph11.3 kmh 29.89 in1012.2 mb 0.03 in0.8 mm 0.00 in0.0 mm 0.06 in1.5 mm
12:08 PM 40.6°F4.8°C 31.3°F-0.4°C 69% 2.0 mph SE3.2 kmh SE 6.0 mph9.7 kmh 29.89 in1012.2 mb 0.02 in0.5 mm 0.00 in0.0 mm 0.06 in1.5 mm
12:13 PM 40.6°F4.8°C 31.3°F-0.4°C 69% 2.9 mph S4.7 kmh S 4.9 mph7.9 kmh 29.89 in1012.2 mb 0.03 in0.8 mm 0.12 in3.0 mm 0.07 in1.8 mm
12:18 PM 40.8°F4.9°C 31.1°F-0.5°C 68% 2.9 mph SW4.7 kmh SW 6.0 mph9.7 kmh 29.88 in1011.9 mb 0.03 in0.8 mm 0.00 in0.0 mm 0.07 in1.8 mm
12:23 PM 40.8°F4.9°C 30.7°F-0.7°C 67% 2.0 mph WNW3.2 kmh WNW 6.0 mph9.7 kmh 29.88 in1011.9 mb 0.03 in0.8 mm 0.00 in0.0 mm 0.07 in1.8 mm
12:28 PM 41.2°F5.1°C 31.1°F-0.5°C 67% 2.0 mph SW3.2 kmh SW 4.0 mph6.4 kmh 29.88 in1011.9 mb 0.04 in1.0 mm 0.12 in3.0 mm 0.08 in2.0 mm
12:33 PM 41.4°F5.2°C 30.6°F-0.8°C 65% 2.0 mph WSW3.2 kmh WSW 6.0 mph9.7 kmh 29.87 in1011.5 mb 0.04 in1.0 mm 0.00 in0.0 mm 0.08 in2.0 mm
12:38 PM 41.4°F5.2°C 30.9°F-0.6°C 66% 2.9 mph SSW4.7 kmh SSW 4.9 mph7.9 kmh 29.87 in1011.5 mb 0.04 in1.0 mm 0.00 in0.0 mm 0.09 in2.3 mm
12:43 PM 41.5°F5.3°C 30.7°F-0.7°C 65% 2.0 mph SW3.2 kmh SW 4.9 mph7.9 kmh 29.87 in1011.5 mb 0.04 in1.0 mm 0.00 in0.0 mm 0.09 in2.3 mm
12:48 PM 41.5°F5.3°C 30.7°F-0.7°C 65% 2.0 mph SW3.2 kmh SW 4.0 mph6.4 kmh 29.87 in1011.5 mb 0.04 in1.0 mm 0.00 in0.0 mm 0.09 in2.3 mm
12:53 PM 41.7°F5.4°C 30.7°F-0.7°C 65% 2.0 mph SW3.2 kmh SW 4.0 mph6.4 kmh 29.87 in1011.5 mb 0.05 in1.3 mm 0.12 in3.0 mm 0.10 in2.5 mm
12:58 PM 42.3°F5.7°C 31.3°F-0.4°C 65% 0.9 mph SW1.4 kmh SW 5.0 mph8.0 kmh 29.86 in1011.2 mb 0.04 in1.0 mm 0.00 in0.0 mm 0.10 in2.5 mm
01:03 PM 42.4°F5.8°C 31.1°F-0.5°C 64% 0.9 mph S1.4 kmh S 2.0 mph3.2 kmh 29.86 in1011.2 mb 0.04 in1.0 mm 0.00 in0.0 mm 0.10 in2.5 mm
01:08 PM 42.4°F5.8°C 31.1°F-0.5°C 64% 0.9 mph WSW1.4 kmh WSW 4.0 mph6.4 kmh 29.86 in1011.2 mb 0.05 in1.3 mm 0.12 in3.0 mm 0.11 in2.8 mm
01:13 PM 42.3°F5.7°C 31.3°F-0.4°C 65% 2.0 mph SW3.2 kmh SW 5.0 mph8.0 kmh 29.86 in1011.2 mb 0.04 in1.0 mm 0.00 in0.0 mm 0.11 in2.8 mm
01:18 PM 42.6°F5.9°C 30.9°F-0.6°C 63% 0.9 mph WSW1.4 kmh WSW 2.9 mph4.7 kmh 29.86 in1011.2 mb 0.04 in1.0 mm 0.00 in0.0 mm 0.11 in2.8 mm
01:23 PM 42.6°F5.9°C 30.6°F-0.8°C 62% 0.9 mph SSW1.4 kmh SSW 4.0 mph6.4 kmh 29.86 in1011.2 mb 0.05 in1.3 mm 0.12 in3.0 mm 0.11 in2.8 mm
01:28 PM 43.0°F6.1°C 31.3°F-0.4°C 63% 0.9 mph WSW1.4 kmh WSW 2.0 mph3.2 kmh 29.86 in1011.2 mb 0.04 in1.0 mm 0.00 in0.0 mm 0.12 in3.0 mm
01:33 PM 43.2°F6.2°C 31.1°F-0.5°C 62% 0.9 mph SSW1.4 kmh SSW 2.9 mph4.7 kmh 29.86 in1011.2 mb 0.04 in1.0 mm 0.00 in0.0 mm 0.12 in3.0 mm
01:38 PM 43.3°F6.3°C 31.3°F-0.4°C 62% 2.0 mph SW3.2 kmh SW 4.0 mph6.4 kmh 29.85 in1010.8 mb 0.03 in0.8 mm 0.00 in0.0 mm 0.12 in3.0 mm
01:43 PM 43.2°F6.2°C 30.6°F-0.8°C 61% 2.0 mph WSW3.2 kmh WSW 5.0 mph8.0 kmh 29.85 in1010.8 mb 0.04 in1.0 mm 0.12 in3.0 mm 0.13 in3.3 mm
01:48 PM 43.2°F6.2°C 31.1°F-0.5°C 62% 2.0 mph SW3.2 kmh SW 5.0 mph8.0 kmh 29.84 in1010.5 mb 0.04 in1.0 mm 0.00 in0.0 mm 0.13 in3.3 mm
01:53 PM 43.2°F6.2°C 31.1°F-0.5°C 62% 2.0 mph SE3.2 kmh SE 4.0 mph6.4 kmh 29.83 in1010.2 mb 0.03 in0.8 mm 0.00 in0.0 mm 0.13 in3.3 mm
01:58 PM 43.3°F6.3°C 30.7°F-0.7°C 61% 2.0 mph S3.2 kmh S 2.9 mph4.7 kmh 29.83 in1010.2 mb 0.03 in0.8 mm 0.00 in0.0 mm 0.13 in3.3 mm
02:03 PM 43.7°F6.5°C 31.1°F-0.5°C 61% 2.0 mph WSW3.2 kmh WSW 4.0 mph6.4 kmh 29.82 in1009.8 mb 0.04 in1.0 mm 0.01 in0.3 mm 0.14 in3.6 mm
02:08 PM 43.5°F6.4°C 30.9°F-0.6°C 61% 0.9 mph SW1.4 kmh SW 2.9 mph4.7 kmh 29.82 in1009.8 mb 0.03 in0.8 mm 0.00 in0.0 mm 0.14 in3.6 mm
02:13 PM 43.7°F6.5°C 31.1°F-0.5°C 61% 0.9 mph SSW1.4 kmh SSW 4.0 mph6.4 kmh 29.81 in1009.5 mb 0.03 in0.8 mm 0.00 in0.0 mm 0.14 in3.6 mm
02:18 PM 43.7°F6.5°C 30.7°F-0.7°C 60% 2.0 mph S3.2 kmh S 4.9 mph7.9 kmh 29.81 in1009.5 mb 0.03 in0.8 mm 0.00 in0.0 mm 0.14 in3.6 mm
02:23 PM 43.9°F6.6°C 31.3°F-0.4°C 61% 2.9 mph SW4.7 kmh SW 4.0 mph6.4 kmh 29.81 in1009.5 mb 0.03 in0.8 mm 0.00 in0.0 mm 0.15 in3.8 mm
02:28 PM 43.9°F6.6°C 30.9°F-0.6°C 60% 2.0 mph S3.2 kmh S 6.0 mph9.7 kmh 29.81 in1009.5 mb 0.03 in0.8 mm 0.00 in0.0 mm 0.15 in3.8 mm
02:34 PM 43.3°F6.3°C 30.7°F-0.7°C 61% 2.0 mph SSE3.2 kmh SSE 6.0 mph9.7 kmh 29.80 in1009.1 mb 0.03 in0.8 mm 0.00 in0.0 mm 0.15 in3.8 mm
02:39 PM 43.3°F6.3°C 31.3°F-0.4°C 62% 2.0 mph SSE3.2 kmh SSE 4.0 mph6.4 kmh 29.80 in1009.1 mb 0.03 in0.8 mm 0.00 in0.0 mm 0.15 in3.8 mm
02:44 PM 43.5°F6.4°C 30.9°F-0.6°C 61% 2.0 mph WSW3.2 kmh WSW 4.9 mph7.9 kmh 29.80 in1009.1 mb 0.02 in0.5 mm 0.00 in0.0 mm 0.15 in3.8 mm
02:49 PM 43.5°F6.4°C 30.9°F-0.6°C 61% 2.0 mph SSW3.2 kmh SSW 4.9 mph7.9 kmh 29.80 in1009.1 mb 0.02 in0.5 mm 0.00 in0.0 mm 0.15 in3.8 mm
02:54 PM 43.5°F6.4°C 30.9°F-0.6°C 61% 2.0 mph S3.2 kmh S 4.0 mph6.4 kmh 29.80 in1009.1 mb 0.02 in0.5 mm 0.00 in0.0 mm 0.15 in3.8 mm
02:59 PM 43.5°F6.4°C 30.9°F-0.6°C 61% 0.9 mph SW1.4 kmh SW 6.0 mph9.7 kmh 29.80 in1009.1 mb 0.03 in0.8 mm 0.12 in3.0 mm 0.16 in4.1 mm
03:04 PM 43.3°F6.3°C 30.4°F-0.9°C 60% 2.0 mph SSW3.2 kmh SSW 7.0 mph11.3 kmh 29.79 in1008.8 mb 0.02 in0.5 mm 0.00 in0.0 mm 0.16 in4.1 mm
03:09 PM 43.2°F6.2°C 30.2°F-1.0°C 60% 2.9 mph S4.7 kmh S 6.0 mph9.7 kmh 29.79 in1008.8 mb 0.02 in0.5 mm 0.00 in0.0 mm 0.16 in4.1 mm
03:14 PM 43.3°F6.3°C 30.4°F-0.9°C 60% 2.9 mph SW4.7 kmh SW 4.9 mph7.9 kmh 29.80 in1009.1 mb 0.02 in0.5 mm 0.00 in0.0 mm 0.16 in4.1 mm
03:19 PM 43.3°F6.3°C 30.4°F-0.9°C 60% 2.9 mph SW4.7 kmh SW 6.0 mph9.7 kmh 29.80 in1009.1 mb 0.02 in0.5 mm 0.00 in0.0 mm 0.16 in4.1 mm
03:24 PM 43.5°F6.4°C 30.6°F-0.8°C 60% 2.0 mph SSW3.2 kmh SSW 4.0 mph6.4 kmh 29.79 in1008.8 mb 0.01 in0.3 mm 0.00 in0.0 mm 0.16 in4.1 mm
03:29 PM 43.5°F6.4°C 30.6°F-0.8°C 60% 2.0 mph SW3.2 kmh SW 2.9 mph4.7 kmh 29.79 in1008.8 mb 0.01 in0.3 mm 0.00 in0.0 mm 0.16 in4.1 mm
03:34 PM 43.7°F6.5°C 31.1°F-0.5°C 61% 0.9 mph S1.4 kmh S 4.0 mph6.4 kmh 29.79 in1008.8 mb 0.01 in0.3 mm 0.00 in0.0 mm 0.16 in4.1 mm
03:39 PM 43.7°F6.5°C 31.5°F-0.3°C 62% 2.0 mph SW3.2 kmh SW 4.0 mph6.4 kmh 29.79 in1008.8 mb 0.01 in0.3 mm 0.00 in0.0 mm 0.16 in4.1 mm
03:44 PM 43.5°F6.4°C 31.3°F-0.4°C 62% 2.0 mph S3.2 kmh S 4.9 mph7.9 kmh 29.79 in1008.8 mb 0.01 in0.3 mm 0.00 in0.0 mm 0.16 in4.1 mm
03:49 PM 43.2°F6.2°C 31.1°F-0.5°C 62% 2.0 mph S3.2 kmh S 6.0 mph9.7 kmh 29.78 in1008.5 mb 0.01 in0.3 mm 0.00 in0.0 mm 0.16 in4.1 mm
03:54 PM 42.8°F6.0°C 31.1°F-0.5°C 63% 2.0 mph SSW3.2 kmh SSW 6.0 mph9.7 kmh 29.79 in1008.8 mb 0.01 in0.3 mm 0.00 in0.0 mm 0.16 in4.1 mm
03:59 PM 42.6°F5.9°C 31.6°F-0.2°C 65% 2.0 mph WSW3.2 kmh WSW 2.9 mph4.7 kmh 29.79 in1008.8 mb 0.00 in0.0 mm 0.00 in0.0 mm 0.16 in4.1 mm
04:04 PM 42.4°F5.8°C 31.1°F-0.5°C 64% 2.0 mph SW3.2 kmh SW 4.9 mph7.9 kmh 29.79 in1008.8 mb 0.00 in0.0 mm 0.00 in0.0 mm 0.16 in4.1 mm
04:09 PM 42.6°F5.9°C 31.3°F-0.4°C 64% 2.0 mph SSW3.2 kmh SSW 2.9 mph4.7 kmh 29.80 in1009.1 mb 0.00 in0.0 mm 0.00 in0.0 mm 0.16 in4.1 mm
04:14 PM 42.6°F5.9°C 31.3°F-0.4°C 64% 0.9 mph S1.4 kmh S 2.9 mph4.7 kmh 29.80 in1009.1 mb 0.00 in0.0 mm 0.00 in0.0 mm 0.16 in4.1 mm
04:19 PM 42.6°F5.9°C 31.3°F-0.4°C 64% 0.9 mph SW1.4 kmh SW 2.0 mph3.2 kmh 29.80 in1009.1 mb 0.00 in0.0 mm 0.00 in0.0 mm 0.16 in4.1 mm
04:24 PM 42.8°F6.0°C 31.5°F-0.3°C 64% Calm Calm 2.0 mph3.2 kmh 29.80 in1009.1 mb 0.00 in0.0 mm 0.00 in0.0 mm 0.16 in4.1 mm
04:29 PM 42.6°F5.9°C 31.6°F-0.2°C 65% 0.9 mph S1.4 kmh S 3.0 mph4.8 kmh 29.80 in1009.1 mb 0.00 in0.0 mm 0.00 in0.0 mm 0.16 in4.1 mm
04:34 PM 42.4°F5.8°C 31.1°F-0.5°C 64% 0.9 mph SSW1.4 kmh SSW 4.0 mph6.4 kmh 29.79 in1008.8 mb 0.00 in0.0 mm 0.00 in0.0 mm 0.16 in4.1 mm
04:39 PM 42.3°F5.7°C 31.3°F-0.4°C 65% 2.0 mph SW3.2 kmh SW 2.9 mph4.7 kmh 29.79 in1008.8 mb 0.00 in0.0 mm 0.00 in0.0 mm 0.16 in4.1 mm
04:44 PM 42.1°F5.6°C 31.1°F-0.5°C 65% 2.0 mph SW3.2 kmh SW 5.0 mph8.0 kmh 29.79 in1008.8 mb 0.00 in0.0 mm 0.00 in0.0 mm 0.16 in4.1 mm
04:49 PM 41.7°F5.4°C 31.3°F-0.4°C 66% 2.0 mph SW3.2 kmh SW 4.9 mph7.9 kmh 29.79 in1008.8 mb 0.01 in0.3 mm 0.12 in3.0 mm 0.16 in4.1 mm
04:54 PM 41.5°F5.3°C 31.1°F-0.5°C 66% 2.0 mph SW3.2 kmh SW 4.0 mph6.4 kmh 29.79 in1008.8 mb 0.01 in0.3 mm 0.00 in0.0 mm 0.17 in4.3 mm
04:59 PM 41.5°F5.3°C 31.1°F-0.5°C 66% 2.0 mph SSW3.2 kmh SSW 4.9 mph7.9 kmh 29.79 in1008.8 mb 0.01 in0.3 mm 0.00 in0.0 mm 0.17 in4.3 mm
05:04 PM 41.4°F5.2°C 31.3°F-0.4°C 67% 2.0 mph S3.2 kmh S 2.9 mph4.7 kmh 29.79 in1008.8 mb 0.01 in0.3 mm 0.00 in0.0 mm 0.17 in4.3 mm
05:09 PM 41.2°F5.1°C 31.1°F-0.5°C 67% 0.9 mph S1.4 kmh S 2.9 mph4.7 kmh 29.79 in1008.8 mb 0.01 in0.3 mm 0.00 in0.0 mm 0.17 in4.3 mm
05:14 PM 41.0°F5.0°C 31.3°F-0.4°C 68% 0.9 mph S1.4 kmh S 2.0 mph3.2 kmh 29.78 in1008.5 mb 0.01 in0.3 mm 0.00 in0.0 mm 0.17 in4.3 mm
05:19 PM 40.8°F4.9°C 31.1°F-0.5°C 68% 0.9 mph SW1.4 kmh SW 2.9 mph4.7 kmh 29.77 in1008.1 mb 0.01 in0.3 mm 0.00 in0.0 mm 0.17 in4.3 mm
05:24 PM 40.8°F4.9°C 31.1°F-0.5°C 68% 2.0 mph SSW3.2 kmh SSW 7.0 mph11.3 kmh 29.77 in1008.1 mb 0.01 in0.3 mm 0.00 in0.0 mm 0.17 in4.3 mm
05:29 PM 40.6°F4.8°C 31.3°F-0.4°C 69% 2.0 mph SW3.2 kmh SW 4.9 mph7.9 kmh 29.77 in1008.1 mb 0.01 in0.3 mm 0.00 in0.0 mm 0.17 in4.3 mm
05:34 PM 40.5°F4.7°C 31.1°F-0.5°C 69% 2.0 mph SSW3.2 kmh SSW 6.0 mph9.7 kmh 29.76 in1007.8 mb 0.01 in0.3 mm 0.00 in0.0 mm 0.17 in4.3 mm
05:39 PM 40.5°F4.7°C 31.1°F-0.5°C 69% 2.9 mph SSW4.7 kmh SSW 6.0 mph9.7 kmh 29.76 in1007.8 mb 0.01 in0.3 mm 0.00 in0.0 mm 0.17 in4.3 mm
05:44 PM 40.5°F4.7°C 31.5°F-0.3°C 70% 2.9 mph SW4.7 kmh SW 6.0 mph9.7 kmh 29.76 in1007.8 mb 0.01 in0.3 mm 0.00 in0.0 mm 0.17 in4.3 mm
05:49 PM 40.3°F4.6°C 31.3°F-0.4°C 70% 2.0 mph SSW3.2 kmh SSW 4.0 mph6.4 kmh 29.76 in1007.8 mb 0.00 in0.0 mm 0.00 in0.0 mm 0.17 in4.3 mm
05:54 PM 39.9°F4.4°C 31.3°F-0.4°C 71% 2.0 mph SW3.2 kmh SW 4.0 mph6.4 kmh 29.76 in1007.8 mb 0.00 in0.0 mm 0.00 in0.0 mm 0.17 in4.3 mm
05:59 PM 39.9°F4.4°C 31.3°F-0.4°C 71% 2.0 mph SW3.2 kmh SW 2.9 mph4.7 kmh 29.76 in1007.8 mb 0.00 in0.0 mm 0.00 in0.0 mm 0.17 in4.3 mm
06:04 PM 39.7°F4.3°C 31.1°F-0.5°C 71% 2.0 mph SSW3.2 kmh SSW 4.9 mph7.9 kmh 29.76 in1007.8 mb 0.00 in0.0 mm 0.00 in0.0 mm 0.17 in4.3 mm
06:09 PM 39.7°F4.3°C 31.1°F-0.5°C 71% 2.0 mph SSW3.2 kmh SSW 4.9 mph7.9 kmh 29.76 in1007.8 mb 0.00 in0.0 mm 0.00 in0.0 mm 0.17 in4.3 mm
06:14 PM 39.6°F4.2°C 30.9°F-0.6°C 71% 2.0 mph SW3.2 kmh SW 6.0 mph9.7 kmh 29.76 in1007.8 mb 0.00 in0.0 mm 0.00 in0.0 mm 0.17 in4.3 mm
06:19 PM 39.6°F4.2°C 31.3°F-0.4°C 72% 2.0 mph SSW3.2 kmh SSW 7.0 mph11.3 kmh 29.75 in1007.5 mb 0.00 in0.0 mm 0.00 in0.0 mm 0.17 in4.3 mm
06:24 PM 39.6°F4.2°C 31.3°F-0.4°C 72% 2.0 mph SSW3.2 kmh SSW 4.9 mph7.9 kmh 29.75 in1007.5 mb 0.00 in0.0 mm 0.00 in0.0 mm 0.17 in4.3 mm
06:29 PM 39.6°F4.2°C 31.3°F-0.4°C 72% 2.0 mph SW3.2 kmh SW 4.0 mph6.4 kmh 29.76 in1007.8 mb 0.00 in0.0 mm 0.00 in0.0 mm 0.17 in4.3 mm
06:34 PM 39.6°F4.2°C 31.3°F-0.4°C 72% 2.0 mph SSW3.2 kmh SSW 5.0 mph8.0 kmh 29.75 in1007.5 mb 0.00 in0.0 mm 0.00 in0.0 mm 0.17 in4.3 mm
06:39 PM 39.4°F4.1°C 31.5°F-0.3°C 73% 2.0 mph SW3.2 kmh SW 4.0 mph6.4 kmh 29.75 in1007.5 mb 0.00 in0.0 mm 0.00 in0.0 mm 0.17 in4.3 mm
06:44 PM 39.6°F4.2°C 31.6°F-0.2°C 73% 2.0 mph SW3.2 kmh SW 8.1 mph13.0 kmh 29.75 in1007.5 mb 0.00 in0.0 mm 0.00 in0.0 mm 0.17 in4.3 mm
06:49 PM 39.6°F4.2°C 32.0°F0.0°C 74% 2.9 mph SW4.7 kmh SW 6.9 mph11.1 kmh 29.74 in1007.1 mb 0.00 in0.0 mm 0.00 in0.0 mm 0.17 in4.3 mm
06:54 PM 39.6°F4.2°C 32.0°F0.0°C 74% 2.0 mph SE3.2 kmh SE 4.9 mph7.9 kmh 29.74 in1007.1 mb 0.00 in0.0 mm 0.00 in0.0 mm 0.17 in4.3 mm
06:59 PM 39.6°F4.2°C 32.0°F0.0°C 74% 2.0 mph S3.2 kmh S 8.1 mph13.0 kmh 29.74 in1007.1 mb 0.00 in0.0 mm 0.00 in0.0 mm 0.17 in4.3 mm
07:04 PM 39.7°F4.3°C 32.5°F0.3°C 75% 2.0 mph SW3.2 kmh SW 6.0 mph9.7 kmh 29.73 in1006.8 mb 0.00 in0.0 mm 0.00 in0.0 mm 0.17 in4.3 mm
07:09 PM 39.6°F4.2°C 32.4°F0.2°C 75% 2.0 mph SW3.2 kmh SW 4.0 mph6.4 kmh 29.73 in1006.8 mb 0.00 in0.0 mm 0.00 in0.0 mm 0.17 in4.3 mm
07:14 PM 39.7°F4.3°C 32.5°F0.3°C 75% 2.0 mph SSE3.2 kmh SSE 6.9 mph11.1 kmh 29.73 in1006.8 mb 0.00 in0.0 mm 0.00 in0.0 mm 0.17 in4.3 mm
07:19 PM 39.7°F4.3°C 32.5°F0.3°C 75% 2.9 mph SW4.7 kmh SW 6.0 mph9.7 kmh 29.72 in1006.4 mb 0.00 in0.0 mm 0.00 in0.0 mm 0.17 in4.3 mm
07:24 PM 39.9°F4.4°C 32.7°F0.4°C 75% 2.9 mph SSW4.7 kmh SSW 8.1 mph13.0 kmh 29.72 in1006.4 mb 0.00 in0.0 mm 0.00 in0.0 mm 0.17 in4.3 mm
07:29 PM 39.9°F4.4°C 32.7°F0.4°C 75% 2.9 mph SW4.7 kmh SW 4.9 mph7.9 kmh 29.72 in1006.4 mb 0.00 in0.0 mm 0.00 in0.0 mm 0.17 in4.3 mm
07:34 PM 39.9°F4.4°C 32.9°F0.5°C 76% 2.0 mph SW3.2 kmh SW 4.0 mph6.4 kmh 29.72 in1006.4 mb 0.00 in0.0 mm 0.00 in0.0 mm 0.17 in4.3 mm
07:39 PM 39.9°F4.4°C 32.9°F0.5°C 76% 2.0 mph SSE3.2 kmh SSE 4.0 mph6.4 kmh 29.71 in1006.1 mb 0.00 in0.0 mm 0.00 in0.0 mm 0.17 in4.3 mm
07:44 PM 40.1°F4.5°C 33.1°F0.6°C 76% 2.0 mph SSW3.2 kmh SSW 4.9 mph7.9 kmh 29.72 in1006.4 mb 0.00 in0.0 mm 0.00 in0.0 mm 0.17 in4.3 mm
07:49 PM 40.3°F4.6°C 33.3°F0.7°C 76% 2.9 mph SSW4.7 kmh SSW 6.0 mph9.7 kmh 29.72 in1006.4 mb 0.00 in0.0 mm 0.00 in0.0 mm 0.17 in4.3 mm
07:54 PM 40.3°F4.6°C 33.3°F0.7°C 76% 2.0 mph WSW3.2 kmh WSW 4.9 mph7.9 kmh 29.71 in1006.1 mb 0.00 in0.0 mm 0.00 in0.0 mm 0.17 in4.3 mm
07:59 PM 40.3°F4.6°C 33.6°F0.9°C 77% 2.0 mph SSW3.2 kmh SSW 4.9 mph7.9 kmh 29.71 in1006.1 mb 0.00 in0.0 mm 0.00 in0.0 mm 0.17 in4.3 mm
08:04 PM 40.3°F4.6°C 33.6°F0.9°C 77% 2.0 mph W3.2 kmh W 2.9 mph4.7 kmh 29.71 in1006.1 mb 0.00 in0.0 mm 0.00 in0.0 mm 0.17 in4.3 mm
08:09 PM 40.3°F4.6°C 33.6°F0.9°C 77% 2.0 mph SW3.2 kmh SW 7.0 mph11.3 kmh 29.71 in1006.1 mb 0.00 in0.0 mm 0.00 in0.0 mm 0.17 in4.3 mm
08:14 PM 40.5°F4.7°C 33.8°F1.0°C 77% 2.0 mph WSW3.2 kmh WSW 4.0 mph6.4 kmh 29.71 in1006.1 mb 0.00 in0.0 mm 0.00 in0.0 mm 0.17 in4.3 mm
08:19 PM 40.5°F4.7°C 33.8°F1.0°C 77% 2.0 mph SSW3.2 kmh SSW 6.0 mph9.7 kmh 29.70 in1005.8 mb 0.00 in0.0 mm 0.00 in0.0 mm 0.17 in4.3 mm
08:24 PM 40.5°F4.7°C 34.2°F1.2°C 78% 2.0 mph SW3.2 kmh SW 4.9 mph7.9 kmh 29.71 in1006.1 mb 0.00 in0.0 mm 0.00 in0.0 mm 0.17 in4.3 mm
08:29 PM 40.6°F4.8°C 34.0°F1.1°C 77% 2.0 mph SSW3.2 kmh SSW 6.0 mph9.7 kmh 29.70 in1005.8 mb 0.00 in0.0 mm 0.00 in0.0 mm 0.17 in4.3 mm
08:34 PM 40.8°F4.9°C 34.2°F1.2°C 77% 2.0 mph WSW3.2 kmh WSW 4.0 mph6.4 kmh 29.71 in1006.1 mb 0.00 in0.0 mm 0.00 in0.0 mm 0.17 in4.3 mm
08:39 PM 40.8°F4.9°C 34.2°F1.2°C 77% 2.0 mph SSW3.2 kmh SSW 4.9 mph7.9 kmh 29.70 in1005.8 mb 0.00 in0.0 mm 0.00 in0.0 mm 0.17 in4.3 mm
08:44 PM 40.8°F4.9°C 34.5°F1.4°C 78% 2.0 mph SW3.2 kmh SW 4.0 mph6.4 kmh 29.70 in1005.8 mb 0.00 in0.0 mm 0.00 in0.0 mm 0.17 in4.3 mm
08:49 PM 41.0°F5.0°C 34.7°F1.5°C 78% 0.9 mph SW1.4 kmh SW 6.0 mph9.7 kmh 29.69 in1005.4 mb 0.00 in0.0 mm 0.00 in0.0 mm 0.17 in4.3 mm
08:54 PM 41.4°F5.2°C 35.1°F1.7°C 78% 2.0 mph SW3.2 kmh SW 4.9 mph7.9 kmh 29.69 in1005.4 mb 0.00 in0.0 mm 0.00 in0.0 mm 0.17 in4.3 mm
08:59 PM 41.4°F5.2°C 34.7°F1.5°C 77% 2.9 mph SSW4.7 kmh SSW 4.9 mph7.9 kmh 29.68 in1005.1 mb 0.00 in0.0 mm 0.00 in0.0 mm 0.17 in4.3 mm
09:04 PM 41.5°F5.3°C 34.9°F1.6°C 77% 2.0 mph S3.2 kmh S 4.9 mph7.9 kmh 29.68 in1005.1 mb 0.00 in0.0 mm 0.00 in0.0 mm 0.17 in4.3 mm
09:10 PM 41.5°F5.3°C 35.2°F1.8°C 78% 2.0 mph SW3.2 kmh SW 6.0 mph9.7 kmh 29.68 in1005.1 mb 0.00 in0.0 mm 0.00 in0.0 mm 0.17 in4.3 mm
09:15 PM 41.7°F5.4°C 35.1°F1.7°C 77% 2.9 mph SW4.7 kmh SW 6.9 mph11.1 kmh 29.68 in1005.1 mb 0.00 in0.0 mm 0.00 in0.0 mm 0.17 in4.3 mm
09:20 PM 41.7°F5.4°C 35.1°F1.7°C 77% 2.9 mph SSW4.7 kmh SSW 6.0 mph9.7 kmh 29.68 in1005.1 mb 0.00 in0.0 mm 0.00 in0.0 mm 0.17 in4.3 mm
09:25 PM 41.9°F5.5°C 35.6°F2.0°C 78% 2.9 mph SW4.7 kmh SW 6.0 mph9.7 kmh 29.68 in1005.1 mb 0.00 in0.0 mm 0.00 in0.0 mm 0.17 in4.3 mm
09:30 PM 42.1°F5.6°C 35.8°F2.1°C 78% 2.9 mph SW4.7 kmh SW 6.9 mph11.1 kmh 29.68 in1005.1 mb 0.00 in0.0 mm 0.00 in0.0 mm 0.17 in4.3 mm
09:35 PM 42.1°F5.6°C 35.4°F1.9°C 77% 2.9 mph S4.7 kmh S 6.0 mph9.7 kmh 29.68 in1005.1 mb 0.00 in0.0 mm 0.00 in0.0 mm 0.17 in4.3 mm
09:40 PM 42.1°F5.6°C 35.4°F1.9°C 77% 2.9 mph SSW4.7 kmh SSW 6.0 mph9.7 kmh 29.67 in1004.7 mb 0.00 in0.0 mm 0.00 in0.0 mm 0.17 in4.3 mm
09:45 PM 42.1°F5.6°C 35.8°F2.1°C 78% 2.9 mph SW4.7 kmh SW 6.0 mph9.7 kmh 29.67 in1004.7 mb 0.00 in0.0 mm 0.00 in0.0 mm 0.17 in4.3 mm
09:50 PM 42.1°F5.6°C 35.8°F2.1°C 78% 2.9 mph SSW4.7 kmh SSW 6.0 mph9.7 kmh 29.67 in1004.7 mb 0.00 in0.0 mm 0.00 in0.0 mm 0.17 in4.3 mm
09:55 PM 42.3°F5.7°C 36.0°F2.2°C 78% 2.9 mph SW4.7 kmh SW 4.9 mph7.9 kmh 29.67 in1004.7 mb 0.00 in0.0 mm 0.00 in0.0 mm 0.17 in4.3 mm
10:00 PM 42.1°F5.6°C 35.8°F2.1°C 78% 2.9 mph SW4.7 kmh SW 7.0 mph11.3 kmh 29.66 in1004.4 mb 0.00 in0.0 mm 0.00 in0.0 mm 0.17 in4.3 mm
10:05 PM 42.1°F5.6°C 35.8°F2.1°C 78% 2.9 mph SSW4.7 kmh SSW 4.9 mph7.9 kmh 29.66 in1004.4 mb 0.00 in0.0 mm 0.00 in0.0 mm 0.17 in4.3 mm
10:10 PM 42.1°F5.6°C 35.8°F2.1°C 78% 2.9 mph SW4.7 kmh SW 4.9 mph7.9 kmh 29.66 in1004.4 mb 0.00 in0.0 mm 0.00 in0.0 mm 0.17 in4.3 mm
10:15 PM 41.9°F5.5°C 35.8°F2.1°C 79% 2.9 mph SW4.7 kmh SW 6.0 mph9.7 kmh 29.66 in1004.4 mb 0.00 in0.0 mm 0.00 in0.0 mm 0.17 in4.3 mm
10:20 PM 42.1°F5.6°C 35.8°F2.1°C 78% 2.9 mph SSW4.7 kmh SSW 6.0 mph9.7 kmh 29.65 in1004.1 mb 0.00 in0.0 mm 0.00 in0.0 mm 0.17 in4.3 mm
10:25 PM 42.1°F5.6°C 35.8°F2.1°C 78% 2.9 mph SW4.7 kmh SW 4.9 mph7.9 kmh 29.65 in1004.1 mb 0.00 in0.0 mm 0.00 in0.0 mm 0.17 in4.3 mm
10:30 PM 42.3°F5.7°C 36.0°F2.2°C 78% 2.9 mph WSW4.7 kmh WSW 6.0 mph9.7 kmh 29.65 in1004.1 mb 0.00 in0.0 mm 0.00 in0.0 mm 0.17 in4.3 mm
10:35 PM 42.3°F5.7°C 36.0°F2.2°C 78% 2.9 mph SW4.7 kmh SW 7.0 mph11.3 kmh 29.65 in1004.1 mb 0.00 in0.0 mm 0.00 in0.0 mm 0.17 in4.3 mm
10:40 PM 42.3°F5.7°C 36.0°F2.2°C 78% 2.9 mph SSW4.7 kmh SSW 6.0 mph9.7 kmh 29.65 in1004.1 mb 0.00 in0.0 mm 0.00 in0.0 mm 0.17 in4.3 mm
10:45 PM 42.4°F5.8°C 36.1°F2.3°C 78% 2.9 mph SW4.7 kmh SW 8.0 mph12.9 kmh 29.66 in1004.4 mb 0.00 in0.0 mm 0.00 in0.0 mm 0.17 in4.3 mm
10:50 PM 42.4°F5.8°C 36.1°F2.3°C 78% 2.9 mph SW4.7 kmh SW 4.0 mph6.4 kmh 29.64 in1003.7 mb 0.00 in0.0 mm 0.00 in0.0 mm 0.17 in4.3 mm
10:55 PM 42.4°F5.8°C 36.1°F2.3°C 78% 2.9 mph SSW4.7 kmh SSW 6.0 mph9.7 kmh 29.64 in1003.7 mb 0.00 in0.0 mm 0.00 in0.0 mm 0.17 in4.3 mm
11:00 PM 42.3°F5.7°C 36.0°F2.2°C 78% 2.9 mph SW4.7 kmh SW 4.9 mph7.9 kmh 29.64 in1003.7 mb 0.00 in0.0 mm 0.00 in0.0 mm 0.17 in4.3 mm
11:05 PM 42.3°F5.7°C 36.0°F2.2°C 78% 2.0 mph SW3.2 kmh SW 7.0 mph11.3 kmh 29.65 in1004.1 mb 0.00 in0.0 mm 0.00 in0.0 mm 0.17 in4.3 mm
11:10 PM 42.3°F5.7°C 36.0°F2.2°C 78% 2.9 mph SSW4.7 kmh SSW 4.0 mph6.4 kmh 29.64 in1003.7 mb 0.00 in0.0 mm 0.00 in0.0 mm 0.17 in4.3 mm
11:15 PM 42.3°F5.7°C 36.0°F2.2°C 78% 2.9 mph SSW4.7 kmh SSW 6.0 mph9.7 kmh 29.64 in1003.7 mb 0.00 in0.0 mm 0.00 in0.0 mm 0.17 in4.3 mm
11:20 PM 42.3°F5.7°C 36.0°F2.2°C 78% 2.9 mph SSW4.7 kmh SSW 7.0 mph11.3 kmh 29.63 in1003.4 mb 0.00 in0.0 mm 0.00 in0.0 mm 0.17 in4.3 mm
11:25 PM 42.3°F5.7°C 36.0°F2.2°C 78% 2.9 mph SW4.7 kmh SW 4.9 mph7.9 kmh 29.64 in1003.7 mb 0.00 in0.0 mm 0.00 in0.0 mm 0.17 in4.3 mm
11:30 PM 42.3°F5.7°C 36.0°F2.2°C 78% 2.0 mph SW3.2 kmh SW 4.9 mph7.9 kmh 29.64 in1003.7 mb 0.00 in0.0 mm 0.00 in0.0 mm 0.17 in4.3 mm
11:35 PM 42.1°F5.6°C 36.0°F2.2°C 79% 2.0 mph SW3.2 kmh SW 4.0 mph6.4 kmh 29.64 in1003.7 mb 0.00 in0.0 mm 0.00 in0.0 mm 0.17 in4.3 mm
11:40 PM 42.3°F5.7°C 36.0°F2.2°C 78% 2.0 mph SSW3.2 kmh SSW 4.9 mph7.9 kmh 29.63 in1003.4 mb 0.00 in0.0 mm 0.00 in0.0 mm 0.17 in4.3 mm
11:45 PM 42.1°F5.6°C 36.0°F2.2°C 79% 2.0 mph SSW3.2 kmh SSW 4.9 mph7.9 kmh 29.63 in1003.4 mb 0.00 in0.0 mm 0.00 in0.0 mm 0.17 in4.3 mm
11:50 PM 42.1°F5.6°C 35.8°F2.1°C 78% 2.0 mph SW3.2 kmh SW 4.9 mph7.9 kmh 29.62 in1003.0 mb 0.00 in0.0 mm 0.00 in0.0 mm 0.17 in4.3 mm
11:55 PM 42.1°F5.6°C 35.8°F2.1°C 78% 2.9 mph WSW4.7 kmh WSW 4.0 mph6.4 kmh 29.63 in1003.4 mb 0.00 in0.0 mm 0.00 in0.0 mm 0.17 in4.3 mm